San Diego, California
Traffic Map
Current Weather Conditions
San Diego, California
Broken Clouds
Broken Clouds
19°
Feels Like: 19°
Wind Chill: 19° Ceiling: 9000
Heat Index: 19° Visibility: 10mi
Dew Point: Wind: 0mph
Humidity: 32% Direction: ° ()
Pressure: 30.03in Gusts: 0mph
Raw Report DataKSAN 261751Z 00000KT 10SM BKN090 BKN200 19/02 A3003 RMK AO2 SLP168 VIRGA W T01940022 10194 20156 53010
Traffic Incident Summary
Active as of:
Severity:
Category:
InformationThere was an issue retrieving the traffic information for this location. Please try a different location or try again shortly.
Advertisements
Track Severe Weather on mobile